createdAt,value
2022-11-29T00:00:11.065Z,100179.88
2022-11-29T00:01:12.069Z,100177.20
2022-11-29T00:02:11.174Z,100180.07
2022-11-29T00:03:11.204Z,100179.51
2022-11-29T00:04:11.069Z,100180.02
2022-11-29T00:05:11.060Z,100180.19
2022-11-29T00:06:14.063Z,100183.05
2022-11-29T00:07:11.068Z,100179.73
2022-11-29T00:08:11.060Z,100181.76
2022-11-29T00:09:11.064Z,100184.11
2022-11-29T00:10:11.068Z,100184.71
2022-11-29T00:11:11.062Z,100185.91
2022-11-29T00:12:15.061Z,100185.94
2022-11-29T00:13:11.063Z,100186.70
2022-11-29T00:14:11.071Z,100186.18
2022-11-29T00:15:11.062Z,100185.60
2022-11-29T00:16:11.142Z,100184.47
2022-11-29T00:17:11.072Z,100184.64
2022-11-29T00:18:11.062Z,100183.88
2022-11-29T00:19:11.067Z,100183.72
2022-11-29T00:20:11.071Z,100182.11
2022-11-29T00:21:11.062Z,100183.35
2022-11-29T00:22:11.063Z,100181.66
2022-11-29T00:23:11.064Z,100180.68
2022-11-29T00:24:11.061Z,100181.75
2022-11-29T00:25:11.067Z,100178.93
2022-11-29T00:26:11.071Z,100178.01
2022-11-29T00:27:11.062Z,100176.85
2022-11-29T00:28:11.060Z,100178.55
2022-11-29T00:29:11.071Z,100177.34
2022-11-29T00:30:11.063Z,100177.83
2022-11-29T00:31:18.087Z,100175.93
2022-11-29T00:32:11.066Z,100176.04
2022-11-29T00:33:11.064Z,100173.38
2022-11-29T00:34:12.061Z,100170.92
2022-11-29T00:35:11.064Z,100168.19
2022-11-29T00:36:11.064Z,100169.66
2022-11-29T00:37:11.064Z,100165.66
2022-11-29T00:38:11.065Z,100168.48
2022-11-29T00:39:11.067Z,100164.87
2022-11-29T00:40:11.063Z,100168.57
2022-11-29T00:41:11.064Z,100168.18
2022-11-29T00:42:11.065Z,100168.00
2022-11-29T00:43:11.063Z,100163.82
2022-11-29T00:44:15.319Z,100167.36
2022-11-29T00:45:13.076Z,100169.50
2022-11-29T00:46:11.161Z,100170.46
2022-11-29T00:47:11.068Z,100175.82
2022-11-29T00:48:11.073Z,100174.32
2022-11-29T00:49:11.066Z,100176.80
2022-11-29T00:50:11.072Z,100175.12
2022-11-29T00:51:11.073Z,100178.38
2022-11-29T00:52:11.066Z,100174.56
2022-11-29T00:53:11.061Z,100175.23
2022-11-29T00:54:11.084Z,100176.11
2022-11-29T00:55:11.064Z,100179.01
2022-11-29T00:56:11.062Z,100179.84
2022-11-29T00:57:11.072Z,100185.39
2022-11-29T00:58:11.066Z,100188.39
2022-11-29T00:59:11.070Z,100188.04
2022-11-29T01:00:11.074Z,100188.34
2022-11-29T01:01:11.092Z,100187.44
2022-11-29T01:02:11.135Z,100189.95
2022-11-29T01:03:11.080Z,100190.78
2022-11-29T01:04:11.067Z,100189.73
2022-11-29T01:05:11.063Z,100190.71
2022-11-29T01:06:11.072Z,100191.18
2022-11-29T01:07:11.065Z,100194.93
2022-11-29T01:08:11.064Z,100193.78
2022-11-29T01:09:11.069Z,100192.93
2022-11-29T01:10:11.067Z,100190.69
2022-11-29T01:11:16.190Z,100193.79
2022-11-29T01:12:11.067Z,100197.14
2022-11-29T01:13:11.070Z,100197.35
2022-11-29T01:14:11.065Z,100194.36
2022-11-29T01:15:11.066Z,100192.14
2022-11-29T01:16:11.076Z,100195.38
2022-11-29T01:17:11.065Z,100193.32
2022-11-29T01:18:11.071Z,100193.64
2022-11-29T01:19:11.075Z,100196.00
2022-11-29T01:20:11.071Z,100193.28
2022-11-29T01:21:12.069Z,100192.74
2022-11-29T01:22:11.076Z,100196.28
2022-11-29T01:23:11.066Z,100197.52
2022-11-29T01:24:11.066Z,100202.63
2022-11-29T01:25:11.077Z,100201.49
2022-11-29T01:26:12.069Z,100199.23
2022-11-29T01:27:11.071Z,100199.62
2022-11-29T01:28:11.076Z,100199.70
2022-11-29T01:29:13.072Z,100199.21
2022-11-29T01:30:11.064Z,100204.50
2022-11-29T01:31:14.120Z,100202.75
2022-11-29T01:32:11.068Z,100204.54
2022-11-29T01:33:11.069Z,100204.12
2022-11-29T01:34:11.069Z,100206.26
2022-11-29T01:35:11.069Z,100208.02
2022-11-29T01:36:11.069Z,100209.00
2022-11-29T01:37:11.069Z,100209.39
2022-11-29T01:38:11.077Z,100209.80
2022-11-29T01:39:11.079Z,100213.75
2022-11-29T01:40:11.069Z,100212.67
2022-11-29T01:41:13.078Z,100211.91
2022-11-29T01:42:13.068Z,100212.23
2022-11-29T01:43:17.070Z,100214.03
2022-11-29T01:44:19.078Z,100220.27
2022-11-29T01:45:19.071Z,100223.36
2022-11-29T01:46:12.094Z,100225.02
2022-11-29T01:47:12.077Z,100226.75
2022-11-29T01:48:12.079Z,100229.36
2022-11-29T01:49:16.069Z,100227.79
2022-11-29T01:50:11.070Z,100232.18
2022-11-29T01:51:11.070Z,100231.90
2022-11-29T01:52:19.075Z,100233.75
2022-11-29T01:53:12.070Z,100234.09
2022-11-29T01:54:11.073Z,100236.96
2022-11-29T01:55:11.081Z,100240.14
2022-11-29T01:56:11.112Z,100241.21
2022-11-29T01:57:11.068Z,100240.47
2022-11-29T01:58:11.073Z,100240.50
2022-11-29T01:59:13.071Z,100242.53
2022-11-29T02:00:16.077Z,100244.26
2022-11-29T02:01:11.124Z,100247.36
2022-11-29T02:02:19.119Z,100250.64
2022-11-29T02:03:11.072Z,100247.37
2022-11-29T02:04:11.078Z,100252.02
2022-11-29T02:05:12.080Z,100252.10
2022-11-29T02:06:11.072Z,100253.04
2022-11-29T02:07:11.066Z,100255.33
2022-11-29T02:08:12.075Z,100256.71
2022-11-29T02:09:19.072Z,100256.03
2022-11-29T02:10:11.072Z,100254.99
2022-11-29T02:11:21.076Z,100256.61
2022-11-29T02:12:21.080Z,100259.89
2022-11-29T02:13:19.071Z,100261.75
2022-11-29T02:14:19.072Z,100261.93
2022-11-29T02:15:19.075Z,100260.38
2022-11-29T02:16:21.106Z,100260.32
2022-11-29T02:17:19.085Z,100255.57
2022-11-29T02:18:19.073Z,100257.25
2022-11-29T02:19:19.071Z,100255.99
2022-11-29T02:20:19.076Z,100257.04
2022-11-29T02:21:21.073Z,100259.44
2022-11-29T02:22:21.080Z,100262.85
2022-11-29T02:23:21.075Z,100261.08
2022-11-29T02:24:21.073Z,100264.00
2022-11-29T02:25:19.074Z,100267.65
2022-11-29T02:26:21.073Z,100266.21
2022-11-29T02:27:19.077Z,100267.79
2022-11-29T02:28:19.075Z,100269.53
2022-11-29T02:29:23.074Z,100272.45
2022-11-29T02:30:19.075Z,100272.73
2022-11-29T02:31:21.089Z,100274.03
2022-11-29T02:32:19.077Z,100277.70
2022-11-29T02:33:19.081Z,100277.26
2022-11-29T02:34:20.077Z,100278.46
2022-11-29T02:35:21.074Z,100281.80
2022-11-29T02:36:19.077Z,100284.55
2022-11-29T02:37:19.078Z,100282.53
2022-11-29T02:38:19.076Z,100283.02
2022-11-29T02:39:19.073Z,100284.61
2022-11-29T02:40:21.068Z,100285.33
2022-11-29T02:41:19.074Z,100285.93
2022-11-29T02:42:21.083Z,100286.92
2022-11-29T02:43:19.076Z,100292.07
2022-11-29T02:44:19.076Z,100294.51
2022-11-29T02:45:21.076Z,100295.56
2022-11-29T02:46:19.161Z,100299.37
2022-11-29T02:47:21.076Z,100300.13
2022-11-29T02:48:19.067Z,100305.87
2022-11-29T02:49:19.061Z,100303.29
2022-11-29T02:50:19.057Z,100307.85
2022-11-29T02:51:19.061Z,100308.14
2022-11-29T02:52:17.065Z,100305.45
2022-11-29T02:53:19.060Z,100306.54
2022-11-29T02:54:21.058Z,100309.28
2022-11-29T02:55:21.059Z,100309.54
2022-11-29T02:56:21.067Z,100310.54
2022-11-29T02:57:19.060Z,100312.18
2022-11-29T02:58:21.068Z,100312.97
2022-11-29T02:59:19.061Z,100314.56
2022-11-29T03:00:15.063Z,100317.54
2022-11-29T03:01:18.126Z,100313.65
2022-11-29T03:02:21.094Z,100313.93
2022-11-29T03:03:19.068Z,100318.13
2022-11-29T03:04:19.060Z,100312.71
2022-11-29T03:05:21.060Z,100320.76
2022-11-29T03:06:21.061Z,100322.89
2022-11-29T03:07:19.112Z,100321.21
2022-11-29T03:08:19.064Z,100323.98
2022-11-29T03:09:21.063Z,100327.64
2022-11-29T03:10:17.061Z,100327.32
2022-11-29T03:11:19.063Z,100328.86
2022-11-29T03:12:18.060Z,100331.36
2022-11-29T03:13:21.067Z,100331.04
2022-11-29T03:14:19.064Z,100332.17
2022-11-29T03:15:21.060Z,100330.62
2022-11-29T03:16:23.061Z,100331.61
2022-11-29T03:17:21.057Z,100335.00
2022-11-29T03:18:19.062Z,100336.06
2022-11-29T03:19:21.069Z,100336.96
2022-11-29T03:20:21.062Z,100338.55
2022-11-29T03:21:18.062Z,100336.99
2022-11-29T03:22:21.062Z,100338.25
2022-11-29T03:23:19.068Z,100339.14
2022-11-29T03:24:15.064Z,100339.75
2022-11-29T03:25:18.061Z,100339.44
2022-11-29T03:26:14.059Z,100341.30
2022-11-29T03:27:17.061Z,100344.17
2022-11-29T03:28:21.070Z,100342.22
2022-11-29T03:29:19.063Z,100346.04
2022-11-29T03:30:13.061Z,100340.67
2022-11-29T03:31:21.156Z,100347.05
2022-11-29T03:32:19.068Z,100346.75
2022-11-29T03:33:19.069Z,100349.87
2022-11-29T03:34:19.065Z,100349.17
2022-11-29T03:35:21.062Z,100349.69
2022-11-29T03:36:19.064Z,100351.39
2022-11-29T03:37:19.065Z,100349.12
2022-11-29T03:38:21.066Z,100350.29
2022-11-29T03:39:17.069Z,100350.83
2022-11-29T03:40:13.063Z,100351.59
2022-11-29T03:41:19.064Z,100353.53
2022-11-29T03:42:13.072Z,100350.40
2022-11-29T03:43:19.071Z,100351.75
2022-11-29T03:44:19.066Z,100352.41
2022-11-29T03:45:17.063Z,100353.07
2022-11-29T03:46:22.133Z,100352.02
2022-11-29T03:47:16.065Z,100353.48
2022-11-29T03:48:16.065Z,100356.31
2022-11-29T03:49:21.061Z,100354.77
2022-11-29T03:50:16.059Z,100359.30
2022-11-29T03:51:18.070Z,100359.73
2022-11-29T03:52:19.067Z,100359.55
2022-11-29T03:53:21.062Z,100359.12
2022-11-29T03:54:16.065Z,100359.99
2022-11-29T03:55:19.063Z,100360.41
2022-11-29T03:56:19.079Z,100362.84
2022-11-29T03:57:11.091Z,100364.57
2022-11-29T03:58:19.063Z,100366.11
2022-11-29T03:59:19.063Z,100366.19
2022-11-29T04:00:14.070Z,100360.91
2022-11-29T04:01:19.114Z,100366.53
2022-11-29T04:02:19.142Z,100373.38
2022-11-29T04:03:19.067Z,100371.19
2022-11-29T04:04:19.073Z,100372.03
2022-11-29T04:05:19.067Z,100372.61
2022-11-29T04:06:19.063Z,100376.65
2022-11-29T04:07:19.083Z,100381.72
2022-11-29T04:08:19.067Z,100379.46
2022-11-29T04:09:21.077Z,100382.94
2022-11-29T04:10:19.066Z,100382.31
2022-11-29T04:11:23.065Z,100385.73
2022-11-29T04:12:19.064Z,100384.73
2022-11-29T04:13:21.067Z,100382.89
2022-11-29T04:14:21.065Z,100383.96
2022-11-29T04:15:19.074Z,100383.89
2022-11-29T04:16:19.100Z,100382.64
2022-11-29T04:17:19.065Z,100380.68
2022-11-29T04:18:19.062Z,100382.59
2022-11-29T04:19:19.064Z,100382.15
2022-11-29T04:20:21.075Z,100380.15
2022-11-29T04:21:21.066Z,100381.92
2022-11-29T04:22:21.067Z,100379.65
2022-11-29T04:23:19.071Z,100382.87
2022-11-29T04:24:19.068Z,100380.11
2022-11-29T04:25:19.069Z,100380.36
2022-11-29T04:26:19.069Z,100383.29
2022-11-29T04:27:19.068Z,100381.38
2022-11-29T04:28:19.062Z,100384.25
2022-11-29T04:29:19.065Z,100383.62
2022-11-29T04:30:19.079Z,100384.29
2022-11-29T04:31:19.129Z,100386.03
2022-11-29T04:32:19.066Z,100384.62
2022-11-29T04:33:19.070Z,100383.73
2022-11-29T04:34:19.068Z,100385.66
2022-11-29T04:35:19.069Z,100384.89
2022-11-29T04:36:19.067Z,100385.79
2022-11-29T04:37:19.066Z,100385.50
2022-11-29T04:38:19.065Z,100385.92
2022-11-29T04:39:21.080Z,100386.05
2022-11-29T04:40:19.068Z,100384.22
2022-11-29T04:41:19.065Z,100386.11
2022-11-29T04:42:19.064Z,100382.89
2022-11-29T04:43:19.068Z,100388.11
2022-11-29T04:44:21.075Z,100389.20
2022-11-29T04:45:23.068Z,100394.74
2022-11-29T04:46:21.150Z,100393.95
2022-11-29T04:47:19.067Z,100396.37
2022-11-29T04:48:19.069Z,100400.75
2022-11-29T04:49:23.070Z,100401.12
2022-11-29T04:50:19.079Z,100401.70
2022-11-29T04:51:19.068Z,100405.54
2022-11-29T04:52:19.067Z,100408.66
2022-11-29T04:53:19.070Z,100411.40
2022-11-29T04:54:21.070Z,100407.75
2022-11-29T04:55:25.006Z,100410.57
2022-11-29T04:56:23.389Z,100412.71
2022-11-29T04:57:19.067Z,100407.09
2022-11-29T04:58:23.072Z,100413.43
2022-11-29T04:59:19.065Z,100412.50
2022-11-29T05:00:11.068Z,100407.85
2022-11-29T05:01:19.154Z,100413.71
2022-11-29T05:02:21.133Z,100415.46
2022-11-29T05:03:19.069Z,100416.20
2022-11-29T05:04:19.068Z,100421.86
2022-11-29T05:05:19.073Z,100425.26
2022-11-29T05:06:19.069Z,100421.83
2022-11-29T05:07:19.174Z,100423.20
2022-11-29T05:08:19.064Z,100425.67
2022-11-29T05:09:19.070Z,100427.91
2022-11-29T05:10:19.082Z,100432.54
2022-11-29T05:11:24.990Z,100436.33
2022-11-29T05:12:23.042Z,100436.20
2022-11-29T05:13:21.064Z,100435.22
2022-11-29T05:14:21.069Z,100443.93
2022-11-29T05:15:19.071Z,100437.80
2022-11-29T05:16:21.147Z,100439.89
2022-11-29T05:17:19.071Z,100445.47
2022-11-29T05:18:21.070Z,100443.30
2022-11-29T05:19:21.067Z,100443.31
2022-11-29T05:20:19.070Z,100446.71
2022-11-29T05:21:18.076Z,100448.84
2022-11-29T05:22:23.071Z,100446.46
2022-11-29T05:23:21.069Z,100443.77
2022-11-29T05:24:21.072Z,100442.78
2022-11-29T05:25:19.071Z,100445.82
2022-11-29T05:26:19.071Z,100446.38
2022-11-29T05:27:19.071Z,100448.30
2022-11-29T05:28:23.068Z,100446.57
2022-11-29T05:29:19.070Z,100445.20
2022-11-29T05:30:18.067Z,100443.78
2022-11-29T05:31:19.091Z,100449.93
2022-11-29T05:32:21.084Z,100451.60
2022-11-29T05:33:23.072Z,100454.14
2022-11-29T05:34:19.069Z,100462.45
2022-11-29T05:35:19.071Z,100462.59
2022-11-29T05:36:19.070Z,100467.73
2022-11-29T05:37:19.082Z,100465.27
2022-11-29T05:38:21.085Z,100464.25
2022-11-29T05:39:19.072Z,100464.82
2022-11-29T05:40:19.066Z,100467.40
2022-11-29T05:41:19.070Z,100466.52
2022-11-29T05:42:19.083Z,100469.36
2022-11-29T05:43:19.073Z,100469.13
2022-11-29T05:44:19.069Z,100472.15
2022-11-29T05:45:19.074Z,100472.21
2022-11-29T05:46:18.104Z,100475.16
2022-11-29T05:47:14.080Z,100476.44
2022-11-29T05:48:21.061Z,100475.00
2022-11-29T05:49:19.059Z,100476.38
2022-11-29T05:50:19.056Z,100476.83
2022-11-29T05:51:19.061Z,100482.13
2022-11-29T05:52:19.075Z,100481.91
2022-11-29T05:53:21.062Z,100481.12
2022-11-29T05:54:19.059Z,100483.58
2022-11-29T05:55:19.068Z,100483.44
2022-11-29T05:56:19.059Z,100487.48
2022-11-29T05:57:19.068Z,100484.44
2022-11-29T05:58:20.063Z,100485.33
2022-11-29T05:59:13.060Z,100485.70
2022-11-29T06:00:12.064Z,100489.31
2022-11-29T06:01:18.063Z,100492.64
2022-11-29T06:02:19.095Z,100492.82
2022-11-29T06:03:21.130Z,100493.61
2022-11-29T06:04:22.060Z,100496.22
2022-11-29T06:05:22.064Z,100498.20
2022-11-29T06:06:22.070Z,100501.18
2022-11-29T06:07:19.160Z,100500.07
2022-11-29T06:08:19.059Z,100502.33
2022-11-29T06:09:21.064Z,100502.76
2022-11-29T06:10:13.061Z,100503.32
2022-11-29T06:11:20.062Z,100508.84
2022-11-29T06:12:20.616Z,100509.80
2022-11-29T06:13:23.063Z,100509.64
2022-11-29T06:14:19.064Z,100513.02
2022-11-29T06:15:19.063Z,100511.10
2022-11-29T06:16:21.186Z,100513.95
2022-11-29T06:17:19.067Z,100512.69
2022-11-29T06:18:21.062Z,100514.05
2022-11-29T06:19:19.064Z,100512.64
2022-11-29T06:20:20.065Z,100514.07
2022-11-29T06:21:19.075Z,100513.60
2022-11-29T06:22:19.063Z,100513.62
2022-11-29T06:23:21.063Z,100518.89
2022-11-29T06:24:24.798Z,100519.16
2022-11-29T06:25:21.054Z,100523.04
2022-11-29T06:26:21.072Z,100524.06
2022-11-29T06:27:19.063Z,100524.77
2022-11-29T06:28:21.062Z,100526.66
2022-11-29T06:29:19.074Z,100530.54
2022-11-29T06:30:16.066Z,100532.82
2022-11-29T06:31:19.153Z,100535.13
2022-11-29T06:32:20.064Z,100538.41
2022-11-29T06:33:19.065Z,100538.60
2022-11-29T06:34:19.064Z,100543.30
2022-11-29T06:35:23.070Z,100543.43
2022-11-29T06:36:21.063Z,100543.12
2022-11-29T06:37:19.070Z,100541.73
2022-11-29T06:38:20.066Z,100542.46
2022-11-29T06:39:11.066Z,100544.89
2022-11-29T06:40:12.059Z,100544.83
2022-11-29T06:41:17.071Z,100550.36
2022-11-29T06:42:11.066Z,100551.36
2022-11-29T06:43:11.066Z,100553.45
2022-11-29T06:44:11.063Z,100554.74
2022-11-29T06:45:12.075Z,100554.67
2022-11-29T06:46:21.114Z,100554.21
2022-11-29T06:47:19.060Z,100551.49
2022-11-29T06:48:11.067Z,100556.65
2022-11-29T06:49:19.067Z,100557.58
2022-11-29T06:50:21.066Z,100555.61
2022-11-29T06:51:19.064Z,100552.47
2022-11-29T06:52:19.068Z,100552.59
2022-11-29T06:53:19.068Z,100551.64
2022-11-29T06:54:21.066Z,100556.53
2022-11-29T06:55:18.068Z,100556.97
2022-11-29T06:56:19.064Z,100561.48
2022-11-29T06:57:21.062Z,100560.59
2022-11-29T06:58:21.066Z,100566.74
2022-11-29T06:59:21.068Z,100567.76
2022-11-29T07:00:19.074Z,100569.33
2022-11-29T07:01:19.139Z,100569.66
2022-11-29T07:02:19.109Z,100573.04
2022-11-29T07:03:19.067Z,100571.59
2022-11-29T07:04:21.065Z,100573.36
2022-11-29T07:05:19.072Z,100575.50
2022-11-29T07:06:19.065Z,100575.52
2022-11-29T07:07:17.160Z,100574.42
2022-11-29T07:08:16.068Z,100577.23
2022-11-29T07:09:15.065Z,100580.69
2022-11-29T07:10:18.083Z,100582.61
2022-11-29T07:11:12.064Z,100582.21
2022-11-29T07:12:11.070Z,100583.83
2022-11-29T07:13:12.075Z,100583.80
2022-11-29T07:14:11.066Z,100583.59
2022-11-29T07:15:14.062Z,100580.57
2022-11-29T07:16:21.122Z,100579.32
2022-11-29T07:17:19.068Z,100577.57
2022-11-29T07:18:19.066Z,100574.01
2022-11-29T07:19:19.063Z,100572.87
2022-11-29T07:20:19.068Z,100567.93
2022-11-29T07:21:19.076Z,100566.51
2022-11-29T07:22:19.067Z,100569.11
2022-11-29T07:23:19.066Z,100565.75
2022-11-29T07:24:19.063Z,100564.80
2022-11-29T07:25:19.067Z,100564.29
2022-11-29T07:26:21.075Z,100563.80
2022-11-29T07:27:21.070Z,100565.43
2022-11-29T07:28:21.071Z,100561.66
2022-11-29T07:29:19.065Z,100562.45
2022-11-29T07:30:17.076Z,100558.30
2022-11-29T07:31:23.095Z,100558.07
2022-11-29T07:32:21.077Z,100552.70
2022-11-29T07:33:21.069Z,100551.48
2022-11-29T07:34:21.067Z,100553.05
2022-11-29T07:35:18.069Z,100551.66
2022-11-29T07:36:21.068Z,100553.96
2022-11-29T07:37:19.085Z,100558.91
2022-11-29T07:38:19.070Z,100564.94
2022-11-29T07:39:21.072Z,100570.22
2022-11-29T07:40:18.067Z,100575.95
2022-11-29T07:41:17.068Z,100578.89
2022-11-29T07:42:19.075Z,100576.62
2022-11-29T07:43:19.068Z,100579.15
2022-11-29T07:44:19.067Z,100583.53
2022-11-29T07:45:19.065Z,100587.62
2022-11-29T07:46:11.071Z,100588.66
2022-11-29T07:47:11.077Z,100592.47
2022-11-29T07:48:12.070Z,100591.27
2022-11-29T07:49:12.065Z,100589.27
2022-11-29T07:50:11.073Z,100589.34
2022-11-29T07:51:11.069Z,100587.21
2022-11-29T07:52:13.068Z,100586.54
2022-11-29T07:53:18.071Z,100589.22
2022-11-29T07:54:12.112Z,100587.98
2022-11-29T07:55:18.525Z,100591.64
2022-11-29T07:56:13.790Z,100592.18
2022-11-29T07:57:11.069Z,100594.71
2022-11-29T07:58:12.069Z,100595.48
2022-11-29T07:59:15.069Z,100598.76
2022-11-29T08:00:11.069Z,100602.05
2022-11-29T08:01:11.166Z,100601.03
2022-11-29T08:02:11.952Z,100599.82
2022-11-29T08:03:11.072Z,100601.00
2022-11-29T08:04:11.080Z,100596.41
2022-11-29T08:05:11.071Z,100595.52
2022-11-29T08:06:11.068Z,100593.61
2022-11-29T08:07:11.070Z,100592.69
2022-11-29T08:08:11.075Z,100593.90
2022-11-29T08:09:11.109Z,100595.89
2022-11-29T08:10:11.074Z,100596.08
2022-11-29T08:11:13.071Z,100599.39
2022-11-29T08:12:11.070Z,100599.61
2022-11-29T08:13:11.076Z,100600.43
2022-11-29T08:14:11.078Z,100601.55
2022-11-29T08:15:11.084Z,100603.13
2022-11-29T08:16:14.108Z,100602.92
2022-11-29T08:17:11.078Z,100599.27
2022-11-29T08:18:11.069Z,100606.37
2022-11-29T08:19:11.068Z,100606.52
2022-11-29T08:20:11.074Z,100609.24
2022-11-29T08:21:11.071Z,100612.59
2022-11-29T08:22:11.070Z,100612.85
2022-11-29T08:23:12.087Z,100611.85
2022-11-29T08:24:11.072Z,100613.21
2022-11-29T08:25:11.068Z,100611.77
2022-11-29T08:26:11.074Z,100611.08
2022-11-29T08:27:11.075Z,100608.71
2022-11-29T08:28:11.076Z,100608.72
2022-11-29T08:29:11.081Z,100606.98
2022-11-29T08:30:11.074Z,100609.45
2022-11-29T08:31:12.123Z,100612.26
2022-11-29T08:32:11.076Z,100612.85
2022-11-29T08:33:11.074Z,100613.72
2022-11-29T08:34:11.074Z,100617.09
2022-11-29T08:35:11.075Z,100614.28
2022-11-29T08:36:17.092Z,100615.49
2022-11-29T08:37:11.071Z,100617.90
2022-11-29T08:38:11.071Z,100617.38
2022-11-29T08:39:11.075Z,100618.94
2022-11-29T08:40:11.072Z,100617.22
2022-11-29T08:41:11.072Z,100616.16
2022-11-29T08:42:11.085Z,100620.67
2022-11-29T08:43:11.074Z,100621.83
2022-11-29T08:44:11.076Z,100621.84
2022-11-29T08:45:11.080Z,100625.48
2022-11-29T08:46:15.256Z,100625.84
2022-11-29T08:47:17.067Z,100623.32
2022-11-29T08:48:11.058Z,100621.27
2022-11-29T08:49:11.060Z,100618.20
2022-11-29T08:50:17.059Z,100618.56
2022-11-29T08:51:11.059Z,100614.96
2022-11-29T08:52:15.066Z,100612.81
2022-11-29T08:53:15.060Z,100611.16
2022-11-29T08:54:11.056Z,100613.04
2022-11-29T08:55:11.059Z,100611.97
2022-11-29T08:56:59.670Z,100615.32
2022-11-29T08:57:39.813Z,100615.52
2022-11-29T08:58:13.031Z,100615.96
2022-11-29T08:59:11.058Z,100613.23
2022-11-29T09:00:11.066Z,100618.20
2022-11-29T09:01:15.098Z,100616.55
2022-11-29T09:02:11.104Z,100619.62
2022-11-29T09:03:17.069Z,100616.26
2022-11-29T09:04:12.062Z,100619.64
2022-11-29T09:05:11.063Z,100617.63
2022-11-29T09:06:17.062Z,100617.91
2022-11-29T09:07:11.058Z,100618.21
2022-11-29T09:08:11.061Z,100620.60
2022-11-29T09:09:11.060Z,100623.10
2022-11-29T09:10:12.061Z,100625.59
2022-11-29T09:11:11.126Z,100625.78
2022-11-29T09:12:12.058Z,100629.64
2022-11-29T09:13:11.058Z,100628.65
2022-11-29T09:14:14.062Z,100632.01
2022-11-29T09:15:11.058Z,100633.04
2022-11-29T09:16:11.258Z,100634.85
2022-11-29T09:17:11.070Z,100638.71
2022-11-29T09:18:11.063Z,100644.14
2022-11-29T09:19:11.056Z,100643.62
2022-11-29T09:20:11.065Z,100649.71
2022-11-29T09:21:11.062Z,100649.78
2022-11-29T09:22:11.057Z,100651.25
2022-11-29T09:23:11.061Z,100652.61
2022-11-29T09:24:11.060Z,100655.94
2022-11-29T09:25:11.062Z,100656.17
2022-11-29T09:26:11.061Z,100656.72
2022-11-29T09:27:11.065Z,100661.26
2022-11-29T09:28:11.060Z,100665.80
2022-11-29T09:29:11.059Z,100670.05
2022-11-29T09:30:11.062Z,100666.84
2022-11-29T09:31:12.058Z,100667.94
2022-11-29T09:32:11.062Z,100666.07
2022-11-29T09:33:11.063Z,100664.70
2022-11-29T09:34:12.060Z,100666.66
2022-11-29T09:35:11.062Z,100668.86
2022-11-29T09:36:11.066Z,100668.46
2022-11-29T09:37:11.059Z,100668.23
2022-11-29T09:38:12.062Z,100667.57
2022-11-29T09:39:11.064Z,100667.99
2022-11-29T09:40:21.109Z,100670.55
2022-11-29T09:41:19.065Z,100668.43
2022-11-29T09:42:21.065Z,100669.27
2022-11-29T09:43:19.072Z,100669.62
2022-11-29T09:44:21.064Z,100672.81
2022-11-29T09:45:16.063Z,100670.52
2022-11-29T09:46:19.090Z,100669.80
2022-11-29T09:47:19.071Z,100672.38
2022-11-29T09:48:19.061Z,100669.84
2022-11-29T09:49:19.060Z,100672.06
2022-11-29T09:50:19.060Z,100673.48
2022-11-29T09:51:21.062Z,100676.61
2022-11-29T09:52:19.070Z,100676.54
2022-11-29T09:53:19.064Z,100680.62
2022-11-29T09:54:19.062Z,100680.21
2022-11-29T09:55:19.059Z,100679.85
2022-11-29T09:56:18.063Z,100681.29
2022-11-29T09:57:11.202Z,100679.68
2022-11-29T09:58:15.065Z,100679.13
2022-11-29T09:59:18.066Z,100680.65
2022-11-29T10:00:15.063Z,100683.54
2022-11-29T10:01:16.143Z,100685.05
2022-11-29T10:02:21.981Z,100685.43
2022-11-29T10:03:19.065Z,100688.43
2022-11-29T10:04:19.067Z,100688.92
2022-11-29T10:05:21.068Z,100689.53
2022-11-29T10:06:17.065Z,100690.68
2022-11-29T10:07:20.108Z,100691.98
2022-11-29T10:08:19.068Z,100695.87
2022-11-29T10:09:21.067Z,100694.85
2022-11-29T10:10:21.074Z,100697.53
2022-11-29T10:11:19.065Z,100696.17
2022-11-29T10:12:18.071Z,100696.05
2022-11-29T10:13:19.060Z,100696.77
2022-11-29T10:14:16.065Z,100696.21
2022-11-29T10:15:22.067Z,100699.37
2022-11-29T10:16:18.108Z,100702.38
2022-11-29T10:17:21.064Z,100704.50
2022-11-29T10:18:21.074Z,100704.42
2022-11-29T10:19:20.063Z,100704.99
2022-11-29T10:20:20.071Z,100707.76
2022-11-29T10:21:17.068Z,100704.89
2022-11-29T10:22:19.085Z,100701.66
2022-11-29T10:23:19.069Z,100701.68
2022-11-29T10:24:15.066Z,100704.35
2022-11-29T10:25:15.074Z,100701.93
2022-11-29T10:26:12.066Z,100700.19
2022-11-29T10:27:19.068Z,100699.97
2022-11-29T10:28:19.068Z,100702.46
2022-11-29T10:29:13.073Z,100696.40
2022-11-29T10:30:15.067Z,100701.70
2022-11-29T10:31:18.128Z,100698.48
2022-11-29T10:32:15.069Z,100698.28
2022-11-29T10:33:19.067Z,100700.66
2022-11-29T10:34:15.068Z,100695.93
2022-11-29T10:35:14.068Z,100698.73
2022-11-29T10:36:23.069Z,100693.95
2022-11-29T10:37:14.077Z,100694.97
2022-11-29T10:38:31.108Z,100690.33
2022-11-29T10:39:21.094Z,100692.21
2022-11-29T10:40:18.066Z,100689.25
2022-11-29T10:41:15.085Z,100689.62
2022-11-29T10:42:24.065Z,100688.45
2022-11-29T10:43:11.068Z,100686.06
2022-11-29T10:44:12.066Z,100688.55
2022-11-29T10:45:19.076Z,100689.02
2022-11-29T10:46:18.176Z,100689.83
2022-11-29T10:47:11.301Z,100688.46
2022-11-29T10:48:16.069Z,100685.78
2022-11-29T10:49:15.069Z,100686.60
2022-11-29T10:50:17.160Z,100687.52
2022-11-29T10:51:15.069Z,100687.27
2022-11-29T10:52:19.074Z,100683.34
2022-11-29T10:53:17.069Z,100688.42
2022-11-29T10:54:21.065Z,100687.73
2022-11-29T10:55:16.063Z,100688.56
2022-11-29T10:56:19.072Z,100689.41
2022-11-29T10:57:16.077Z,100690.48
2022-11-29T10:58:26.278Z,100689.70
2022-11-29T10:59:22.057Z,100690.71
2022-11-29T11:00:12.066Z,100686.15
2022-11-29T11:01:15.109Z,100688.23
2022-11-29T11:02:17.074Z,100688.33
2022-11-29T11:03:15.072Z,100689.84
2022-11-29T11:04:15.071Z,100686.56
2022-11-29T11:05:14.136Z,100689.05
2022-11-29T11:06:19.091Z,100689.92
2022-11-29T11:07:19.095Z,100686.50
2022-11-29T11:08:17.071Z,100687.05
2022-11-29T11:09:20.072Z,100685.40
2022-11-29T11:10:21.077Z,100684.43
2022-11-29T11:11:11.069Z,100685.08
2022-11-29T11:12:19.069Z,100684.51
2022-11-29T11:13:19.068Z,100685.52
2022-11-29T11:14:20.087Z,100687.02
2022-11-29T11:15:19.078Z,100682.82
2022-11-29T11:16:15.124Z,100684.71
2022-11-29T11:17:19.069Z,100689.81
2022-11-29T11:18:19.072Z,100690.71
2022-11-29T11:19:19.072Z,100691.92
2022-11-29T11:20:19.071Z,100686.51
2022-11-29T11:21:11.072Z,100693.68
2022-11-29T11:22:19.074Z,100689.82
2022-11-29T11:23:19.072Z,100693.32
2022-11-29T11:24:19.071Z,100689.59